Ahvaz International Airport

Airport
ICAO code: 
OIAW
IATA Code: 
AWZ
Summary
ICAO Region: 
MID
Territory: 
Location: 
Ahvaz, Khuzestan
Serving: 
Ahvas
Elevation: 
66 ft
Coordinates: 
Aerial View: 
31° 20' 15" N, 48° 45' 37.001" E
Metar
Observation
OIAW 241653Z 26002KT 9999 FEW035CB SCT040 13/07 Q1018
Station
Ahwaz
Date/Time
2022-01-24 16:53:00
Wind direction
260°
Wind speed
02 kts
Lowest cloud amount
few clouds
Temperature
13°C
Dew point
7°C
Humidity
66%
QNH
1018 hPa
Weather condition
n/a

Ahvaz (or Ahwaz) airport serves the city of Ahvaz, west Iran.

Climatology

Hot Desert Climate (Köppen climate classification BWh)

Runways

Designator Length Width Surface Rops
12/30 3398 45 ASP Yes/Yes
Airport map: 
Aerial View: 

SKYbrary Partners:

Safety knowledge contributed by: